sensor_id;sensor_type;location;lat;lon;timestamp;temperature;humidity
23124;DHT22;11731;48.592;8.858;2022-08-01T00:02:17;24.10;86.30
23124;DHT22;11731;48.592;8.858;2022-08-01T00:04:44;24.10;85.80
23124;DHT22;11731;48.592;8.858;2022-08-01T00:07:11;24.00;87.00
23124;DHT22;11731;48.592;8.858;2022-08-01T00:09:40;23.80;87.50
23124;DHT22;11731;48.592;8.858;2022-08-01T00:12:22;23.70;87.30
23124;DHT22;11731;48.592;8.858;2022-08-01T00:14:55;23.70;87.80
23124;DHT22;11731;48.592;8.858;2022-08-01T00:17:24;23.70;87.90
23124;DHT22;11731;48.592;8.858;2022-08-01T00:19:53;23.70;88.20
23124;DHT22;11731;48.592;8.858;2022-08-01T00:22:43;23.60;87.40
23124;DHT22;11731;48.592;8.858;2022-08-01T00:25:10;23.60;87.30
23124;DHT22;11731;48.592;8.858;2022-08-01T00:27:38;23.60;87.00
23124;DHT22;11731;48.592;8.858;2022-08-01T00:30:06;23.50;87.40
23124;DHT22;11731;48.592;8.858;2022-08-01T00:32:33;23.50;87.40
23124;DHT22;11731;48.592;8.858;2022-08-01T00:35:00;23.40;87.40
23124;DHT22;11731;48.592;8.858;2022-08-01T00:37:27;23.30;87.50
23124;DHT22;11731;48.592;8.858;2022-08-01T00:39:54;23.30;87.80
23124;DHT22;11731;48.592;8.858;2022-08-01T00:42:21;23.20;88.50
23124;DHT22;11731;48.592;8.858;2022-08-01T00:44:49;23.10;89.10
23124;DHT22;11731;48.592;8.858;2022-08-01T00:47:16;23.10;90.10
23124;DHT22;11731;48.592;8.858;2022-08-01T00:49:43;23.10;89.80
23124;DHT22;11731;48.592;8.858;2022-08-01T00:52:10;23.10;90.10
23124;DHT22;11731;48.592;8.858;2022-08-01T00:54:39;23.00;90.40
23124;DHT22;11731;48.592;8.858;2022-08-01T00:57:07;22.70;90.50
23124;DHT22;11731;48.592;8.858;2022-08-01T00:59:34;22.30;90.70
23124;DHT22;11731;48.592;8.858;2022-08-01T01:02:03;22.10;91.00
23124;DHT22;11731;48.592;8.858;2022-08-01T01:04:30;22.00;91.00
23124;DHT22;11731;48.592;8.858;2022-08-01T01:07:00;22.20;90.40
23124;DHT22;11731;48.592;8.858;2022-08-01T01:09:35;22.30;90.50
23124;DHT22;11731;48.592;8.858;2022-08-01T01:12:12;22.20;90.80
23124;DHT22;11731;48.592;8.858;2022-08-01T01:14:46;22.40;90.50
23124;DHT22;11731;48.592;8.858;2022-08-01T01:17:27;22.40;90.20
23124;DHT22;11731;48.592;8.858;2022-08-01T01:19:57;22.60;90.10
23124;DHT22;11731;48.592;8.858;2022-08-01T01:22:36;22.70;90.10
23124;DHT22;11731;48.592;8.858;2022-08-01T01:25:28;22.70;90.20
23124;DHT22;11731;48.592;8.858;2022-08-01T01:28:05;22.60;90.40
23124;DHT22;11731;48.592;8.858;2022-08-01T01:30:38;22.50;90.70
23124;DHT22;11731;48.592;8.858;2022-08-01T01:33:06;22.10;91.30
23124;DHT22;11731;48.592;8.858;2022-08-01T01:35:40;22.30;91.10
23124;DHT22;11731;48.592;8.858;2022-08-01T01:38:12;22.10;91.30
23124;DHT22;11731;48.592;8.858;2022-08-01T01:40:43;22.10;91.70
23124;DHT22;11731;48.592;8.858;2022-08-01T01:43:11;22.20;91.80
23124;DHT22;11731;48.592;8.858;2022-08-01T01:45:41;22.30;91.90
23124;DHT22;11731;48.592;8.858;2022-08-01T01:48:13;22.00;92.10
23124;DHT22;11731;48.592;8.858;2022-08-01T01:50:42;21.90;91.60
23124;DHT22;11731;48.592;8.858;2022-08-01T01:53:10;21.80;92.00
23124;DHT22;11731;48.592;8.858;2022-08-01T01:55:39;21.90;91.90
23124;DHT22;11731;48.592;8.858;2022-08-01T01:58:08;21.90;91.70
23124;DHT22;11731;48.592;8.858;2022-08-01T02:00:40;21.80;92.10
23124;DHT22;11731;48.592;8.858;2022-08-01T02:03:11;21.70;92.20
23124;DHT22;11731;48.592;8.858;2022-08-01T02:05:39;21.70;92.10
23124;DHT22;11731;48.592;8.858;2022-08-01T02:08:07;21.70;92.00
23124;DHT22;11731;48.592;8.858;2022-08-01T02:10:36;21.90;91.80
23124;DHT22;11731;48.592;8.858;2022-08-01T02:13:05;21.90;92.00
23124;DHT22;11731;48.592;8.858;2022-08-01T02:15:34;21.90;91.80
23124;DHT22;11731;48.592;8.858;2022-08-01T02:18:06;21.80;92.30
23124;DHT22;11731;48.592;8.858;2022-08-01T02:20:34;21.80;92.00
23124;DHT22;11731;48.592;8.858;2022-08-01T02:23:07;22.00;91.80
23124;DHT22;11731;48.592;8.858;2022-08-01T02:25:38;21.90;91.70
23124;DHT22;11731;48.592;8.858;2022-08-01T02:29:02;22.00;91.80
23124;DHT22;11731;48.592;8.858;2022-08-01T02:31:22;21.80;91.70
23124;DHT22;11731;48.592;8.858;2022-08-01T02:33:56;22.00;91.60
23124;DHT22;11731;48.592;8.858;2022-08-01T02:36:25;22.00;91.80
23124;DHT22;11731;48.592;8.858;2022-08-01T02:38:54;21.80;92.20
23124;DHT22;11731;48.592;8.858;2022-08-01T02:41:24;21.70;92.20
23124;DHT22;11731;48.592;8.858;2022-08-01T02:43:53;21.80;92.10
23124;DHT22;11731;48.592;8.858;2022-08-01T02:46:43;21.80;92.10
23124;DHT22;11731;48.592;8.858;2022-08-01T02:49:12;21.60;92.30
23124;DHT22;11731;48.592;8.858;2022-08-01T02:51:41;21.60;92.30
23124;DHT22;11731;48.592;8.858;2022-08-01T02:54:10;21.70;92.10
23124;DHT22;11731;48.592;8.858;2022-08-01T02:56:38;21.60;92.40
23124;DHT22;11731;48.592;8.858;2022-08-01T02:59:08;21.50;92.50
23124;DHT22;11731;48.592;8.858;2022-08-01T03:01:38;21.00;93.00
23124;DHT22;11731;48.592;8.858;2022-08-01T03:04:07;21.10;93.00
23124;DHT22;11731;48.592;8.858;2022-08-01T03:06:36;21.10;92.90
23124;DHT22;11731;48.592;8.858;2022-08-01T03:09:04;21.10;92.90
23124;DHT22;11731;48.592;8.858;2022-08-01T03:11:38;21.20;92.80
23124;DHT22;11731;48.592;8.858;2022-08-01T03:14:27;21.20;92.40
23124;DHT22;11731;48.592;8.858;2022-08-01T03:16:55;20.60;93.80
23124;DHT22;11731;48.592;8.858;2022-08-01T03:19:26;20.70;93.70
23124;DHT22;11731;48.592;8.858;2022-08-01T03:21:55;20.80;93.50
23124;DHT22;11731;48.592;8.858;2022-08-01T03:24:25;20.30;94.60
23124;DHT22;11731;48.592;8.858;2022-08-01T03:26:53;20.10;95.40
23124;DHT22;11731;48.592;8.858;2022-08-01T03:30:29;20.20;94.80
23124;DHT22;11731;48.592;8.858;2022-08-01T03:32:29;20.10;95.30
23124;DHT22;11731;48.592;8.858;2022-08-01T03:34:58;20.30;95.60
23124;DHT22;11731;48.592;8.858;2022-08-01T03:37:26;20.50;95.60
23124;DHT22;11731;48.592;8.858;2022-08-01T03:39:58;20.50;95.50
23124;DHT22;11731;48.592;8.858;2022-08-01T03:42:30;20.30;95.90
23124;DHT22;11731;48.592;8.858;2022-08-01T03:45:01;20.10;96.30
23124;DHT22;11731;48.592;8.858;2022-08-01T03:47:31;20.10;96.30
23124;DHT22;11731;48.592;8.858;2022-08-01T03:50:02;20.10;96.90
23124;DHT22;11731;48.592;8.858;2022-08-01T03:52:30;20.10;96.50
23124;DHT22;11731;48.592;8.858;2022-08-01T03:55:00;20.10;96.60
23124;DHT22;11731;48.592;8.858;2022-08-01T03:57:28;20.10;96.80
23124;DHT22;11731;48.592;8.858;2022-08-01T03:59:56;19.90;97.10
23124;DHT22;11731;48.592;8.858;2022-08-01T04:02:24;19.80;97.40
23124;DHT22;11731;48.592;8.858;2022-08-01T04:04:51;19.80;97.40
23124;DHT22;11731;48.592;8.858;2022-08-01T04:07:24;19.90;97.10
23124;DHT22;11731;48.592;8.858;2022-08-01T04:09:52;20.00;96.60
23124;DHT22;11731;48.592;8.858;2022-08-01T04:12:19;20.10;96.30
23124;DHT22;11731;48.592;8.858;2022-08-01T04:14:46;19.80;96.20
23124;DHT22;11731;48.592;8.858;2022-08-01T04:17:14;19.90;96.10
23124;DHT22;11731;48.592;8.858;2022-08-01T04:19:41;19.90;96.30
23124;DHT22;11731;48.592;8.858;2022-08-01T04:22:09;19.80;96.50
23124;DHT22;11731;48.592;8.858;2022-08-01T04:24:39;19.90;96.40
23124;DHT22;11731;48.592;8.858;2022-08-01T04:27:11;19.90;96.60
23124;DHT22;11731;48.592;8.858;2022-08-01T04:29:39;19.90;96.90
23124;DHT22;11731;48.592;8.858;2022-08-01T04:32:09;20.00;96.90
23124;DHT22;11731;48.592;8.858;2022-08-01T04:34:39;19.90;97.10
23124;DHT22;11731;48.592;8.858;2022-08-01T04:37:09;20.10;97.00
23124;DHT22;11731;48.592;8.858;2022-08-01T04:39:40;20.10;96.90
23124;DHT22;11731;48.592;8.858;2022-08-01T04:42:08;20.20;96.90
23124;DHT22;11731;48.592;8.858;2022-08-01T04:44:36;20.50;96.50
23124;DHT22;11731;48.592;8.858;2022-08-01T04:47:03;20.40;96.70
23124;DHT22;11731;48.592;8.858;2022-08-01T04:49:33;20.50;96.60
23124;DHT22;11731;48.592;8.858;2022-08-01T04:52:00;20.60;96.20
23124;DHT22;11731;48.592;8.858;2022-08-01T04:54:28;20.50;96.40
23124;DHT22;11731;48.592;8.858;2022-08-01T04:56:56;20.50;96.30
23124;DHT22;11731;48.592;8.858;2022-08-01T04:59:25;20.40;96.30
23124;DHT22;11731;48.592;8.858;2022-08-01T05:02:08;20.50;96.50
23124;DHT22;11731;48.592;8.858;2022-08-01T05:04:36;20.40;96.00
23124;DHT22;11731;48.592;8.858;2022-08-01T05:07:03;20.50;96.00
23124;DHT22;11731;48.592;8.858;2022-08-01T05:09:30;20.50;95.90
23124;DHT22;11731;48.592;8.858;2022-08-01T05:11:59;20.50;95.90
23124;DHT22;11731;48.592;8.858;2022-08-01T05:14:27;20.40;95.80
23124;DHT22;11731;48.592;8.858;2022-08-01T05:16:57;20.40;96.10
23124;DHT22;11731;48.592;8.858;2022-08-01T05:19:24;20.20;96.10
23124;DHT22;11731;48.592;8.858;2022-08-01T05:21:51;20.10;96.50
23124;DHT22;11731;48.592;8.858;2022-08-01T05:24:18;20.30;96.40
23124;DHT22;11731;48.592;8.858;2022-08-01T05:26:45;20.50;95.90
23124;DHT22;11731;48.592;8.858;2022-08-01T05:29:13;20.70;95.60
23124;DHT22;11731;48.592;8.858;2022-08-01T05:31:40;20.80;95.40
23124;DHT22;11731;48.592;8.858;2022-08-01T05:34:07;20.80;95.40
23124;DHT22;11731;48.592;8.858;2022-08-01T05:36:34;20.90;95.30
23124;DHT22;11731;48.592;8.858;2022-08-01T05:39:03;21.10;95.20
23124;DHT22;11731;48.592;8.858;2022-08-01T05:41:30;21.20;95.10
23124;DHT22;11731;48.592;8.858;2022-08-01T05:43:56;21.40;94.90
23124;DHT22;11731;48.592;8.858;2022-08-01T05:46:25;21.40;94.70
23124;DHT22;11731;48.592;8.858;2022-08-01T05:48:52;21.50;95.10
23124;DHT22;11731;48.592;8.858;2022-08-01T05:51:19;21.40;94.90
23124;DHT22;11731;48.592;8.858;2022-08-01T05:53:45;21.50;94.80
23124;DHT22;11731;48.592;8.858;2022-08-01T05:56:12;21.60;94.60
23124;DHT22;11731;48.592;8.858;2022-08-01T05:58:39;21.80;94.40
23124;DHT22;11731;48.592;8.858;2022-08-01T06:01:06;21.80;94.30
23124;DHT22;11731;48.592;8.858;2022-08-01T06:03:34;21.80;94.50
23124;DHT22;11731;48.592;8.858;2022-08-01T06:06:02;22.00;94.30
23124;DHT22;11731;48.592;8.858;2022-08-01T06:08:29;22.20;94.20
23124;DHT22;11731;48.592;8.858;2022-08-01T06:10:56;22.20;94.10
23124;DHT22;11731;48.592;8.858;2022-08-01T06:13:23;22.20;94.40
23124;DHT22;11731;48.592;8.858;2022-08-01T06:15:50;22.20;94.20
23124;DHT22;11731;48.592;8.858;2022-08-01T06:18:17;22.40;94.10
23124;DHT22;11731;48.592;8.858;2022-08-01T06:20:45;22.70;93.80
23124;DHT22;11731;48.592;8.858;2022-08-01T06:23:13;22.90;93.70
23124;DHT22;11731;48.592;8.858;2022-08-01T06:25:41;22.80;93.90
23124;DHT22;11731;48.592;8.858;2022-08-01T06:28:08;22.90;93.70
23124;DHT22;11731;48.592;8.858;2022-08-01T06:30:35;23.10;93.70
23124;DHT22;11731;48.592;8.858;2022-08-01T06:33:02;23.10;93.80
23124;DHT22;11731;48.592;8.858;2022-08-01T06:35:30;23.20;93.70
23124;DHT22;11731;48.592;8.858;2022-08-01T06:37:58;23.50;93.50
23124;DHT22;11731;48.592;8.858;2022-08-01T06:40:25;23.40;93.40
23124;DHT22;11731;48.592;8.858;2022-08-01T06:42:52;23.40;93.30
23124;DHT22;11731;48.592;8.858;2022-08-01T06:45:19;23.50;93.40
23124;DHT22;11731;48.592;8.858;2022-08-01T06:47:48;23.50;93.10
23124;DHT22;11731;48.592;8.858;2022-08-01T06:50:15;23.50;93.40
23124;DHT22;11731;48.592;8.858;2022-08-01T06:52:42;23.90;93.00
23124;DHT22;11731;48.592;8.858;2022-08-01T06:55:10;24.10;92.80
23124;DHT22;11731;48.592;8.858;2022-08-01T06:57:45;24.30;92.60
23124;DHT22;11731;48.592;8.858;2022-08-01T07:00:13;24.50;92.60
23124;DHT22;11731;48.592;8.858;2022-08-01T07:02:41;24.50;92.50
23124;DHT22;11731;48.592;8.858;2022-08-01T07:05:09;24.50;92.60
23124;DHT22;11731;48.592;8.858;2022-08-01T07:07:35;24.60;92.50
23124;DHT22;11731;48.592;8.858;2022-08-01T07:10:03;24.70;92.40
23124;DHT22;11731;48.592;8.858;2022-08-01T07:12:32;24.80;92.10
23124;DHT22;11731;48.592;8.858;2022-08-01T07:14:59;24.80;92.20
23124;DHT22;11731;48.592;8.858;2022-08-01T07:17:26;24.60;92.60
23124;DHT22;11731;48.592;8.858;2022-08-01T07:19:52;24.80;92.60
23124;DHT22;11731;48.592;8.858;2022-08-01T07:22:20;25.20;92.20
23124;DHT22;11731;48.592;8.858;2022-08-01T07:24:47;25.40;91.90
23124;DHT22;11731;48.592;8.858;2022-08-01T07:27:14;25.50;91.70
23124;DHT22;11731;48.592;8.858;2022-08-01T07:29:42;25.60;91.80
23124;DHT22;11731;48.592;8.858;2022-08-01T07:32:09;25.70;91.70
23124;DHT22;11731;48.592;8.858;2022-08-01T07:34:36;25.80;91.50
23124;DHT22;11731;48.592;8.858;2022-08-01T07:37:03;25.80;91.40
23124;DHT22;11731;48.592;8.858;2022-08-01T07:39:30;26.10;91.20
23124;DHT22;11731;48.592;8.858;2022-08-01T07:41:56;26.10;91.10
23124;DHT22;11731;48.592;8.858;2022-08-01T07:44:24;26.10;91.40
23124;DHT22;11731;48.592;8.858;2022-08-01T07:46:52;26.30;91.20
23124;DHT22;11731;48.592;8.858;2022-08-01T07:49:19;26.60;90.80
23124;DHT22;11731;48.592;8.858;2022-08-01T07:51:47;26.50;91.00
23124;DHT22;11731;48.592;8.858;2022-08-01T07:54:14;26.50;90.90
23124;DHT22;11731;48.592;8.858;2022-08-01T07:56:41;26.70;90.80
23124;DHT22;11731;48.592;8.858;2022-08-01T07:59:07;27.00;90.60
23124;DHT22;11731;48.592;8.858;2022-08-01T08:01:34;26.50;90.70
23124;DHT22;11731;48.592;8.858;2022-08-01T08:04:03;26.60;90.80
23124;DHT22;11731;48.592;8.858;2022-08-01T08:06:29;26.30;90.70
23124;DHT22;11731;48.592;8.858;2022-08-01T08:08:56;25.90;91.20
23124;DHT22;11731;48.592;8.858;2022-08-01T08:11:23;25.90;91.40
23124;DHT22;11731;48.592;8.858;2022-08-01T08:13:50;26.00;91.40
23124;DHT22;11731;48.592;8.858;2022-08-01T08:16:17;26.20;90.70
23124;DHT22;11731;48.592;8.858;2022-08-01T08:18:44;26.00;91.30
23124;DHT22;11731;48.592;8.858;2022-08-01T08:21:12;26.20;91.40
23124;DHT22;11731;48.592;8.858;2022-08-01T08:23:39;26.20;91.20
23124;DHT22;11731;48.592;8.858;2022-08-01T08:26:23;26.50;90.80
23124;DHT22;11731;48.592;8.858;2022-08-01T08:28:50;26.40;90.80
23124;DHT22;11731;48.592;8.858;2022-08-01T08:31:17;26.10;91.10
23124;DHT22;11731;48.592;8.858;2022-08-01T08:33:44;26.20;91.10
23124;DHT22;11731;48.592;8.858;2022-08-01T08:36:13;26.70;90.50
23124;DHT22;11731;48.592;8.858;2022-08-01T08:38:40;27.10;90.00
23124;DHT22;11731;48.592;8.858;2022-08-01T08:41:07;27.30;89.60
23124;DHT22;11731;48.592;8.858;2022-08-01T08:43:35;27.60;89.20
23124;DHT22;11731;48.592;8.858;2022-08-01T08:46:02;27.70;88.90
23124;DHT22;11731;48.592;8.858;2022-08-01T08:48:30;27.30;89.30
23124;DHT22;11731;48.592;8.858;2022-08-01T08:50:57;26.90;90.30
23124;DHT22;11731;48.592;8.858;2022-08-01T08:53:28;26.20;90.60
23124;DHT22;11731;48.592;8.858;2022-08-01T08:55:57;26.50;90.50
23124;DHT22;11731;48.592;8.858;2022-08-01T08:58:26;27.10;89.10
23124;DHT22;11731;48.592;8.858;2022-08-01T09:00:53;27.20;88.10
23124;DHT22;11731;48.592;8.858;2022-08-01T09:03:20;27.40;88.30
23124;DHT22;11731;48.592;8.858;2022-08-01T09:05:47;27.50;87.50
23124;DHT22;11731;48.592;8.858;2022-08-01T09:08:14;27.30;88.70
23124;DHT22;11731;48.592;8.858;2022-08-01T09:10:42;27.70;87.70
23124;DHT22;11731;48.592;8.858;2022-08-01T09:13:12;27.40;89.00
23124;DHT22;11731;48.592;8.858;2022-08-01T09:15:44;27.30;86.50
23124;DHT22;11731;48.592;8.858;2022-08-01T09:18:29;27.50;85.80
23124;DHT22;11731;48.592;8.858;2022-08-01T09:21:13;27.90;85.20
23124;DHT22;11731;48.592;8.858;2022-08-01T09:23:42;28.10;84.90
23124;DHT22;11731;48.592;8.858;2022-08-01T09:26:13;27.90;85.70
23124;DHT22;11731;48.592;8.858;2022-08-01T09:28:41;27.70;85.70
23124;DHT22;11731;48.592;8.858;2022-08-01T09:31:10;27.00;87.60
23124;DHT22;11731;48.592;8.858;2022-08-01T09:33:48;26.50;88.60
23124;DHT22;11731;48.592;8.858;2022-08-01T09:36:16;26.20;89.70
23124;DHT22;11731;48.592;8.858;2022-08-01T09:38:43;26.20;90.00
23124;DHT22;11731;48.592;8.858;2022-08-01T09:41:09;26.30;88.90
23124;DHT22;11731;48.592;8.858;2022-08-01T09:43:38;27.00;87.60
23124;DHT22;11731;48.592;8.858;2022-08-01T09:46:09;27.50;86.80
23124;DHT22;11731;48.592;8.858;2022-08-01T09:48:37;27.60;85.20
23124;DHT22;11731;48.592;8.858;2022-08-01T09:51:05;27.80;85.70
23124;DHT22;11731;48.592;8.858;2022-08-01T09:53:45;28.20;85.40
23124;DHT22;11731;48.592;8.858;2022-08-01T09:56:12;28.30;84.90
23124;DHT22;11731;48.592;8.858;2022-08-01T09:58:55;28.10;84.50
23124;DHT22;11731;48.592;8.858;2022-08-01T10:01:22;28.20;84.50
23124;DHT22;11731;48.592;8.858;2022-08-01T10:04:05;28.40;84.00
23124;DHT22;11731;48.592;8.858;2022-08-01T10:06:31;28.70;82.80
23124;DHT22;11731;48.592;8.858;2022-08-01T10:08:59;28.30;83.00
23124;DHT22;11731;48.592;8.858;2022-08-01T10:11:26;28.10;84.40
23124;DHT22;11731;48.592;8.858;2022-08-01T10:13:56;28.20;83.50
23124;DHT22;11731;48.592;8.858;2022-08-01T10:16:26;28.70;83.00
23124;DHT22;11731;48.592;8.858;2022-08-01T10:18:54;28.60;81.70
23124;DHT22;11731;48.592;8.858;2022-08-01T10:21:22;28.10;83.20
23124;DHT22;11731;48.592;8.858;2022-08-01T10:23:52;27.90;84.10
23124;DHT22;11731;48.592;8.858;2022-08-01T10:26:20;28.20;83.10
23124;DHT22;11731;48.592;8.858;2022-08-01T10:28:48;28.30;82.40
23124;DHT22;11731;48.592;8.858;2022-08-01T10:31:18;28.40;81.60
23124;DHT22;11731;48.592;8.858;2022-08-01T10:33:46;28.30;81.50
23124;DHT22;11731;48.592;8.858;2022-08-01T10:36:13;28.20;81.50
23124;DHT22;11731;48.592;8.858;2022-08-01T10:38:40;28.20;81.40
23124;DHT22;11731;48.592;8.858;2022-08-01T10:41:08;28.20;81.80
23124;DHT22;11731;48.592;8.858;2022-08-01T10:43:36;28.60;81.60
23124;DHT22;11731;48.592;8.858;2022-08-01T10:46:03;28.30;82.40
23124;DHT22;11731;48.592;8.858;2022-08-01T10:48:43;28.20;82.90
23124;DHT22;11731;48.592;8.858;2022-08-01T10:51:12;28.10;83.80
23124;DHT22;11731;48.592;8.858;2022-08-01T10:53:46;27.90;84.50
23124;DHT22;11731;48.592;8.858;2022-08-01T10:56:14;27.50;84.80
23124;DHT22;11731;48.592;8.858;2022-08-01T10:58:43;27.40;84.50
23124;DHT22;11731;48.592;8.858;2022-08-01T11:01:19;27.90;83.70
23124;DHT22;11731;48.592;8.858;2022-08-01T11:04:06;28.20;83.10
23124;DHT22;11731;48.592;8.858;2022-08-01T11:09:31;28.40;81.60
23124;DHT22;11731;48.592;8.858;2022-08-01T11:12:07;28.20;82.50
23124;DHT22;11731;48.592;8.858;2022-08-01T11:17:50;27.70;83.90
23124;DHT22;11731;48.592;8.858;2022-08-01T11:20:20;28.20;83.20
23124;DHT22;11731;48.592;8.858;2022-08-01T11:26:07;28.50;81.70
23124;DHT22;11731;48.592;8.858;2022-08-01T11:28:35;28.60;81.90
23124;DHT22;11731;48.592;8.858;2022-08-01T11:31:30;29.10;80.90
23124;DHT22;11731;48.592;8.858;2022-08-01T11:33:58;29.10;79.90
23124;DHT22;11731;48.592;8.858;2022-08-01T11:36:26;29.40;79.50
23124;DHT22;11731;48.592;8.858;2022-08-01T11:39:12;29.00;79.70
23124;DHT22;11731;48.592;8.858;2022-08-01T11:41:46;28.70;81.30
23124;DHT22;11731;48.592;8.858;2022-08-01T11:44:19;28.40;80.50
23124;DHT22;11731;48.592;8.858;2022-08-01T11:46:50;28.70;80.70
23124;DHT22;11731;48.592;8.858;2022-08-01T11:49:29;29.10;80.70
23124;DHT22;11731;48.592;8.858;2022-08-01T11:52:01;28.80;79.20
23124;DHT22;11731;48.592;8.858;2022-08-01T11:54:29;28.50;79.70
23124;DHT22;11731;48.592;8.858;2022-08-01T11:56:57;28.70;80.00
23124;DHT22;11731;48.592;8.858;2022-08-01T11:59:24;28.40;79.80
23124;DHT22;11731;48.592;8.858;2022-08-01T12:01:52;28.10;79.40
23124;DHT22;11731;48.592;8.858;2022-08-01T12:04:19;28.10;80.80
23124;DHT22;11731;48.592;8.858;2022-08-01T12:06:46;28.70;79.30
23124;DHT22;11731;48.592;8.858;2022-08-01T12:09:19;28.60;77.70
23124;DHT22;11731;48.592;8.858;2022-08-01T12:11:46;28.40;78.70
23124;DHT22;11731;48.592;8.858;2022-08-01T12:14:19;28.50;78.80
23124;DHT22;11731;48.592;8.858;2022-08-01T12:16:51;28.80;78.90
23124;DHT22;11731;48.592;8.858;2022-08-01T12:19:24;29.10;76.10
23124;DHT22;11731;48.592;8.858;2022-08-01T12:22:12;29.40;74.80
23124;DHT22;11731;48.592;8.858;2022-08-01T12:24:42;29.10;75.20
23124;DHT22;11731;48.592;8.858;2022-08-01T12:27:10;28.90;75.70
23124;DHT22;11731;48.592;8.858;2022-08-01T12:29:39;29.10;76.40
23124;DHT22;11731;48.592;8.858;2022-08-01T12:32:25;29.30;75.40
23124;DHT22;11731;48.592;8.858;2022-08-01T12:34:53;30.00;74.90
23124;DHT22;11731;48.592;8.858;2022-08-01T12:37:20;29.60;75.00
23124;DHT22;11731;48.592;8.858;2022-08-01T12:39:49;29.10;76.20
23124;DHT22;11731;48.592;8.858;2022-08-01T12:42:16;29.30;76.10
23124;DHT22;11731;48.592;8.858;2022-08-01T12:44:46;29.40;75.50
23124;DHT22;11731;48.592;8.858;2022-08-01T12:47:17;29.50;76.40
23124;DHT22;11731;48.592;8.858;2022-08-01T12:49:51;29.00;76.80
23124;DHT22;11731;48.592;8.858;2022-08-01T12:52:18;29.10;76.50
23124;DHT22;11731;48.592;8.858;2022-08-01T12:55:07;29.50;75.50
23124;DHT22;11731;48.592;8.858;2022-08-01T12:57:36;29.90;75.10
23124;DHT22;11731;48.592;8.858;2022-08-01T13:00:13;29.90;74.30
23124;DHT22;11731;48.592;8.858;2022-08-01T13:02:41;30.10;75.00
23124;DHT22;11731;48.592;8.858;2022-08-01T13:05:09;30.20;73.40
23124;DHT22;11731;48.592;8.858;2022-08-01T13:07:49;30.00;73.50
23124;DHT22;11731;48.592;8.858;2022-08-01T13:10:26;29.70;73.90
23124;DHT22;11731;48.592;8.858;2022-08-01T13:12:55;29.40;74.70
23124;DHT22;11731;48.592;8.858;2022-08-01T13:15:28;29.90;74.90
23124;DHT22;11731;48.592;8.858;2022-08-01T13:17:58;30.30;73.00
23124;DHT22;11731;48.592;8.858;2022-08-01T13:20:29;30.30;72.20
23124;DHT22;11731;48.592;8.858;2022-08-01T13:23:10;30.40;71.20
23124;DHT22;11731;48.592;8.858;2022-08-01T13:25:49;30.80;71.10
23124;DHT22;11731;48.592;8.858;2022-08-01T13:28:18;30.30;74.70
23124;DHT22;11731;48.592;8.858;2022-08-01T13:30:57;30.20;74.30
23124;DHT22;11731;48.592;8.858;2022-08-01T13:33:25;30.30;73.40
23124;DHT22;11731;48.592;8.858;2022-08-01T13:35:54;30.00;73.80
23124;DHT22;11731;48.592;8.858;2022-08-01T13:38:22;30.40;72.20
23124;DHT22;11731;48.592;8.858;2022-08-01T13:41:10;30.50;71.80
23124;DHT22;11731;48.592;8.858;2022-08-01T13:43:38;30.00;73.50
23124;DHT22;11731;48.592;8.858;2022-08-01T13:46:06;29.80;74.70
23124;DHT22;11731;48.592;8.858;2022-08-01T13:48:33;29.90;74.60
23124;DHT22;11731;48.592;8.858;2022-08-01T13:51:00;30.00;74.40
23124;DHT22;11731;48.592;8.858;2022-08-01T13:53:27;30.10;74.20
23124;DHT22;11731;48.592;8.858;2022-08-01T13:55:54;29.80;73.70
23124;DHT22;11731;48.592;8.858;2022-08-01T13:58:23;29.60;74.80
23124;DHT22;11731;48.592;8.858;2022-08-01T14:00:50;29.70;74.10
23124;DHT22;11731;48.592;8.858;2022-08-01T14:03:17;29.80;74.10
23124;DHT22;11731;48.592;8.858;2022-08-01T14:05:44;29.60;75.60
23124;DHT22;11731;48.592;8.858;2022-08-01T14:08:11;29.80;75.50
23124;DHT22;11731;48.592;8.858;2022-08-01T14:10:38;29.50;75.60
23124;DHT22;11731;48.592;8.858;2022-08-01T14:13:05;29.40;76.90
23124;DHT22;11731;48.592;8.858;2022-08-01T14:15:33;29.40;76.90
23124;DHT22;11731;48.592;8.858;2022-08-01T14:18:00;29.10;77.20
23124;DHT22;11731;48.592;8.858;2022-08-01T14:20:27;29.20;78.50
23124;DHT22;11731;48.592;8.858;2022-08-01T14:22:54;29.20;78.50
23124;DHT22;11731;48.592;8.858;2022-08-01T14:25:21;29.30;77.70
23124;DHT22;11731;48.592;8.858;2022-08-01T14:27:48;28.90;78.70
23124;DHT22;11731;48.592;8.858;2022-08-01T14:30:15;28.70;79.50
23124;DHT22;11731;48.592;8.858;2022-08-01T14:32:43;28.80;79.10
23124;DHT22;11731;48.592;8.858;2022-08-01T14:35:10;28.80;79.30
23124;DHT22;11731;48.592;8.858;2022-08-01T14:37:37;28.70;80.20
23124;DHT22;11731;48.592;8.858;2022-08-01T14:40:06;28.90;80.10
23124;DHT22;11731;48.592;8.858;2022-08-01T14:42:34;28.80;80.40
23124;DHT22;11731;48.592;8.858;2022-08-01T14:45:02;28.90;79.80
23124;DHT22;11731;48.592;8.858;2022-08-01T14:47:34;29.00;79.20
23124;DHT22;11731;48.592;8.858;2022-08-01T14:50:03;29.00;78.70
23124;DHT22;11731;48.592;8.858;2022-08-01T14:52:31;29.00;79.40
23124;DHT22;11731;48.592;8.858;2022-08-01T14:54:58;29.30;79.40
23124;DHT22;11731;48.592;8.858;2022-08-01T14:57:25;29.20;77.30
23124;DHT22;11731;48.592;8.858;2022-08-01T14:59:52;29.30;77.60
23124;DHT22;11731;48.592;8.858;2022-08-01T15:02:20;29.60;77.00
23124;DHT22;11731;48.592;8.858;2022-08-01T15:04:47;29.60;78.00
23124;DHT22;11731;48.592;8.858;2022-08-01T15:07:16;29.50;77.10
23124;DHT22;11731;48.592;8.858;2022-08-01T15:09:44;29.50;78.40
23124;DHT22;11731;48.592;8.858;2022-08-01T15:12:12;28.90;79.40
23124;DHT22;11731;48.592;8.858;2022-08-01T15:14:39;28.70;79.50
23124;DHT22;11731;48.592;8.858;2022-08-01T15:17:16;28.50;81.10
23124;DHT22;11731;48.592;8.858;2022-08-01T15:19:44;28.60;81.20
23124;DHT22;11731;48.592;8.858;2022-08-01T15:22:12;28.30;81.90
23124;DHT22;11731;48.592;8.858;2022-08-01T15:24:40;28.00;82.70
23124;DHT22;11731;48.592;8.858;2022-08-01T15:27:07;28.30;81.70
23124;DHT22;11731;48.592;8.858;2022-08-01T15:29:34;28.60;80.40
23124;DHT22;11731;48.592;8.858;2022-08-01T15:32:02;28.90;79.40
23124;DHT22;11731;48.592;8.858;2022-08-01T15:34:29;29.30;79.50
23124;DHT22;11731;48.592;8.858;2022-08-01T15:36:57;28.90;81.50
23124;DHT22;11731;48.592;8.858;2022-08-01T15:39:24;28.70;81.60
23124;DHT22;11731;48.592;8.858;2022-08-01T15:41:52;28.50;81.90
23124;DHT22;11731;48.592;8.858;2022-08-01T15:44:19;28.10;83.40
23124;DHT22;11731;48.592;8.858;2022-08-01T15:46:47;28.40;83.70
23124;DHT22;11731;48.592;8.858;2022-08-01T15:49:14;28.40;82.70
23124;DHT22;11731;48.592;8.858;2022-08-01T15:51:41;28.20;82.20
23124;DHT22;11731;48.592;8.858;2022-08-01T15:54:11;28.20;82.50
23124;DHT22;11731;48.592;8.858;2022-08-01T15:56:38;28.00;82.40